sensor_id;sensor_type;location;lat;lon;timestamp;P1;durP1;ratioP1;P2;durP2;ratioP2
20166;SDS011;10243;49.118;8.508;2023-05-02T00:00:09;1.60;;;1.50;;
20166;SDS011;10243;49.118;8.508;2023-05-02T00:00:30;1.70;;;1.60;;
20166;SDS011;10243;49.118;8.508;2023-05-02T00:00:53;1.70;;;1.60;;
20166;SDS011;10243;49.118;8.508;2023-05-02T00:01:14;1.70;;;1.60;;
20166;SDS011;10243;49.118;8.508;2023-05-02T00:01:34;1.70;;;1.60;;
20166;SDS011;10243;49.118;8.508;2023-05-02T00:01:56;1.70;;;1.60;;
20166;SDS011;10243;49.118;8.508;2023-05-02T00:02:16;1.67;;;1.58;;
20166;SDS011;10243;49.118;8.508;2023-05-02T00:02:37;1.87;;;1.77;;
20166;SDS011;10243;49.118;8.508;2023-05-02T00:02:57;1.88;;;1.70;;
20166;SDS011;10243;49.118;8.508;2023-05-02T00:03:18;1.73;;;1.63;;
20166;SDS011;10243;49.118;8.508;2023-05-02T00:03:39;1.70;;;1.60;;
20166;SDS011;10243;49.118;8.508;2023-05-02T00:04:01;1.80;;;1.70;;
20166;SDS011;10243;49.118;8.508;2023-05-02T00:04:22;1.70;;;1.60;;
20166;SDS011;10243;49.118;8.508;2023-05-02T00:04:43;1.70;;;1.60;;
20166;SDS011;10243;49.118;8.508;2023-05-02T00:05:04;1.70;;;1.60;;
20166;SDS011;10243;49.118;8.508;2023-05-02T00:05:24;2.00;;;1.90;;
20166;SDS011;10243;49.118;8.508;2023-05-02T00:05:45;1.70;;;1.60;;
20166;SDS011;10243;49.118;8.508;2023-05-02T00:06:07;1.75;;;1.65;;
20166;SDS011;10243;49.118;8.508;2023-05-02T00:06:28;1.90;;;1.70;;
20166;SDS011;10243;49.118;8.508;2023-05-02T00:06:50;1.70;;;1.60;;
20166;SDS011;10243;49.118;8.508;2023-05-02T00:07:10;3.20;;;1.60;;
20166;SDS011;10243;49.118;8.508;2023-05-02T00:07:33;1.60;;;1.50;;
20166;SDS011;10243;49.118;8.508;2023-05-02T00:07:54;2.15;;;1.60;;
20166;SDS011;10243;49.118;8.508;2023-05-02T00:08:15;2.30;;;1.58;;
20166;SDS011;10243;49.118;8.508;2023-05-02T00:08:35;1.60;;;1.50;;
20166;SDS011;10243;49.118;8.508;2023-05-02T00:08:57;1.80;;;1.70;;
20166;SDS011;10243;49.118;8.508;2023-05-02T00:09:17;1.70;;;1.60;;
20166;SDS011;10243;49.118;8.508;2023-05-02T00:09:38;1.58;;;1.48;;
20166;SDS011;10243;49.118;8.508;2023-05-02T00:09:58;1.60;;;1.50;;
20166;SDS011;10243;49.118;8.508;2023-05-02T00:10:21;1.90;;;1.80;;
20166;SDS011;10243;49.118;8.508;2023-05-02T00:10:42;1.63;;;1.50;;
20166;SDS011;10243;49.118;8.508;2023-05-02T00:11:02;2.28;;;1.83;;
20166;SDS011;10243;49.118;8.508;2023-05-02T00:11:23;1.83;;;1.73;;
20166;SDS011;10243;49.118;8.508;2023-05-02T00:11:44;1.83;;;1.73;;
20166;SDS011;10243;49.118;8.508;2023-05-02T00:12:04;1.70;;;1.60;;
20166;SDS011;10243;49.118;8.508;2023-05-02T00:12:25;1.80;;;1.70;;
20166;SDS011;10243;49.118;8.508;2023-05-02T00:12:46;1.55;;;1.45;;
20166;SDS011;10243;49.118;8.508;2023-05-02T00:13:06;1.80;;;1.70;;
20166;SDS011;10243;49.118;8.508;2023-05-02T00:13:27;1.70;;;1.60;;
20166;SDS011;10243;49.118;8.508;2023-05-02T00:13:48;1.83;;;1.73;;
20166;SDS011;10243;49.118;8.508;2023-05-02T00:14:08;1.70;;;1.60;;
20166;SDS011;10243;49.118;8.508;2023-05-02T00:14:29;1.70;;;1.60;;
20166;SDS011;10243;49.118;8.508;2023-05-02T00:14:50;1.90;;;1.80;;
20166;SDS011;10243;49.118;8.508;2023-05-02T00:15:10;1.80;;;1.70;;
20166;SDS011;10243;49.118;8.508;2023-05-02T00:15:31;1.77;;;1.67;;
20166;SDS011;10243;49.118;8.508;2023-05-02T00:15:51;1.80;;;1.70;;
20166;SDS011;10243;49.118;8.508;2023-05-02T00:16:12;1.70;;;1.60;;
20166;SDS011;10243;49.118;8.508;2023-05-02T00:16:33;2.15;;;1.90;;
20166;SDS011;10243;49.118;8.508;2023-05-02T00:16:53;1.83;;;1.67;;
20166;SDS011;10243;49.118;8.508;2023-05-02T00:17:15;1.90;;;1.80;;
20166;SDS011;10243;49.118;8.508;2023-05-02T00:17:38;1.80;;;1.70;;
20166;SDS011;10243;49.118;8.508;2023-05-02T00:17:59;1.75;;;1.65;;
20166;SDS011;10243;49.118;8.508;2023-05-02T00:18:19;1.70;;;1.60;;
20166;SDS011;10243;49.118;8.508;2023-05-02T00:18:40;1.70;;;1.60;;
20166;SDS011;10243;49.118;8.508;2023-05-02T00:19:00;1.58;;;1.48;;
20166;SDS011;10243;49.118;8.508;2023-05-02T00:19:22;1.70;;;1.60;;
20166;SDS011;10243;49.118;8.508;2023-05-02T00:19:42;1.77;;;1.67;;
20166;SDS011;10243;49.118;8.508;2023-05-02T00:20:03;1.73;;;1.63;;
20166;SDS011;10243;49.118;8.508;2023-05-02T00:20:24;1.80;;;1.70;;
20166;SDS011;10243;49.118;8.508;2023-05-02T00:20:44;2.05;;;1.85;;
20166;SDS011;10243;49.118;8.508;2023-05-02T00:21:09;1.70;;;1.60;;
20166;SDS011;10243;49.118;8.508;2023-05-02T00:21:30;1.70;;;1.60;;
20166;SDS011;10243;49.118;8.508;2023-05-02T00:21:52;1.65;;;1.55;;
20166;SDS011;10243;49.118;8.508;2023-05-02T00:22:12;1.60;;;1.50;;
20166;SDS011;10243;49.118;8.508;2023-05-02T00:22:34;1.70;;;1.60;;
20166;SDS011;10243;49.118;8.508;2023-05-02T00:22:55;1.92;;;1.83;;
20166;SDS011;10243;49.118;8.508;2023-05-02T00:23:16;1.70;;;1.60;;
20166;SDS011;10243;49.118;8.508;2023-05-02T00:23:36;1.93;;;1.80;;
20166;SDS011;10243;49.118;8.508;2023-05-02T00:23:57;1.65;;;1.55;;
20166;SDS011;10243;49.118;8.508;2023-05-02T00:24:18;1.63;;;1.50;;
20166;SDS011;10243;49.118;8.508;2023-05-02T00:24:38;1.60;;;1.50;;
20166;SDS011;10243;49.118;8.508;2023-05-02T00:24:59;1.65;;;1.55;;
20166;SDS011;10243;49.118;8.508;2023-05-02T00:25:19;1.83;;;1.73;;
20166;SDS011;10243;49.118;8.508;2023-05-02T00:25:43;1.70;;;1.60;;
20166;SDS011;10243;49.118;8.508;2023-05-02T00:26:07;1.75;;;1.65;;
20166;SDS011;10243;49.118;8.508;2023-05-02T00:26:27;1.88;;;1.77;;
20166;SDS011;10243;49.118;8.508;2023-05-02T00:26:48;1.97;;;1.80;;
20166;SDS011;10243;49.118;8.508;2023-05-02T00:27:09;1.80;;;1.70;;
20166;SDS011;10243;49.118;8.508;2023-05-02T00:27:30;2.08;;;1.80;;
20166;SDS011;10243;49.118;8.508;2023-05-02T00:27:51;1.80;;;1.70;;
20166;SDS011;10243;49.118;8.508;2023-05-02T00:28:11;1.60;;;1.50;;
20166;SDS011;10243;49.118;8.508;2023-05-02T00:28:32;1.50;;;1.40;;
20166;SDS011;10243;49.118;8.508;2023-05-02T00:28:53;1.70;;;1.60;;
20166;SDS011;10243;49.118;8.508;2023-05-02T00:29:14;2.00;;;1.80;;
20166;SDS011;10243;49.118;8.508;2023-05-02T00:29:35;1.90;;;1.70;;
20166;SDS011;10243;49.118;8.508;2023-05-02T00:29:55;1.80;;;1.70;;
20166;SDS011;10243;49.118;8.508;2023-05-02T00:30:16;1.73;;;1.63;;
20166;SDS011;10243;49.118;8.508;2023-05-02T00:30:41;1.60;;;1.50;;
20166;SDS011;10243;49.118;8.508;2023-05-02T00:31:03;1.70;;;1.60;;
20166;SDS011;10243;49.118;8.508;2023-05-02T00:31:23;1.80;;;1.70;;
20166;SDS011;10243;49.118;8.508;2023-05-02T00:31:43;1.70;;;1.60;;
20166;SDS011;10243;49.118;8.508;2023-05-02T00:32:05;2.00;;;1.90;;
20166;SDS011;10243;49.118;8.508;2023-05-02T00:32:25;1.90;;;1.80;;
20166;SDS011;10243;49.118;8.508;2023-05-02T00:32:46;1.70;;;1.60;;
20166;SDS011;10243;49.118;8.508;2023-05-02T00:33:07;1.65;;;1.55;;
20166;SDS011;10243;49.118;8.508;2023-05-02T00:33:28;1.73;;;1.63;;
20166;SDS011;10243;49.118;8.508;2023-05-02T00:33:48;2.03;;;1.80;;
20166;SDS011;10243;49.118;8.508;2023-05-02T00:34:09;2.15;;;1.90;;
20166;SDS011;10243;49.118;8.508;2023-05-02T00:34:29;1.77;;;1.63;;
20166;SDS011;10243;49.118;8.508;2023-05-02T00:34:51;1.85;;;1.75;;
20166;SDS011;10243;49.118;8.508;2023-05-02T00:35:11;1.65;;;1.55;;
20166;SDS011;10243;49.118;8.508;2023-05-02T00:35:32;1.70;;;1.60;;
20166;SDS011;10243;49.118;8.508;2023-05-02T00:35:52;1.70;;;1.60;;
20166;SDS011;10243;49.118;8.508;2023-05-02T00:36:14;1.80;;;1.70;;
20166;SDS011;10243;49.118;8.508;2023-05-02T00:36:34;1.70;;;1.60;;
20166;SDS011;10243;49.118;8.508;2023-05-02T00:36:55;1.80;;;1.70;;
20166;SDS011;10243;49.118;8.508;2023-05-02T00:37:15;1.80;;;1.65;;
20166;SDS011;10243;49.118;8.508;2023-05-02T00:37:37;1.60;;;1.40;;
20166;SDS011;10243;49.118;8.508;2023-05-02T00:37:59;1.90;;;1.80;;
20166;SDS011;10243;49.118;8.508;2023-05-02T00:38:19;2.17;;;1.97;;
20166;SDS011;10243;49.118;8.508;2023-05-02T00:38:39;2.22;;;2.03;;
20166;SDS011;10243;49.118;8.508;2023-05-02T00:39:00;1.83;;;1.73;;
20166;SDS011;10243;49.118;8.508;2023-05-02T00:39:20;1.65;;;1.55;;
20166;SDS011;10243;49.118;8.508;2023-05-02T00:39:42;1.67;;;1.58;;
20166;SDS011;10243;49.118;8.508;2023-05-02T00:40:04;1.90;;;1.80;;
20166;SDS011;10243;49.118;8.508;2023-05-02T00:40:25;2.05;;;1.90;;
20166;SDS011;10243;49.118;8.508;2023-05-02T00:40:45;1.93;;;1.83;;
20166;SDS011;10243;49.118;8.508;2023-05-02T00:41:07;1.98;;;1.88;;
20166;SDS011;10243;49.118;8.508;2023-05-02T00:41:27;2.10;;;2.00;;
20166;SDS011;10243;49.118;8.508;2023-05-02T00:41:48;2.00;;;1.90;;
20166;SDS011;10243;49.118;8.508;2023-05-02T00:42:08;1.93;;;1.80;;
20166;SDS011;10243;49.118;8.508;2023-05-02T00:42:29;2.00;;;1.80;;
20166;SDS011;10243;49.118;8.508;2023-05-02T00:42:51;1.50;;;1.40;;
20166;SDS011;10243;49.118;8.508;2023-05-02T00:43:11;1.80;;;1.70;;
20166;SDS011;10243;49.118;8.508;2023-05-02T00:43:31;1.70;;;1.60;;
20166;SDS011;10243;49.118;8.508;2023-05-02T00:43:52;1.63;;;1.52;;
20166;SDS011;10243;49.118;8.508;2023-05-02T00:44:12;1.70;;;1.60;;
20166;SDS011;10243;49.118;8.508;2023-05-02T00:44:34;1.60;;;1.50;;
20166;SDS011;10243;49.118;8.508;2023-05-02T00:44:54;1.80;;;1.70;;
20166;SDS011;10243;49.118;8.508;2023-05-02T00:45:14;1.87;;;1.77;;
20166;SDS011;10243;49.118;8.508;2023-05-02T00:45:36;1.80;;;1.70;;
20166;SDS011;10243;49.118;8.508;2023-05-02T00:45:56;1.80;;;1.70;;
20166;SDS011;10243;49.118;8.508;2023-05-02T00:46:18;1.98;;;1.88;;
20166;SDS011;10243;49.118;8.508;2023-05-02T00:46:38;1.77;;;1.67;;
20166;SDS011;10243;49.118;8.508;2023-05-02T00:46:59;1.73;;;1.63;;
20166;SDS011;10243;49.118;8.508;2023-05-02T00:47:20;1.83;;;1.73;;
20166;SDS011;10243;49.118;8.508;2023-05-02T00:47:41;1.87;;;1.77;;
20166;SDS011;10243;49.118;8.508;2023-05-02T00:48:03;1.98;;;1.88;;
20166;SDS011;10243;49.118;8.508;2023-05-02T00:48:23;1.70;;;1.60;;
20166;SDS011;10243;49.118;8.508;2023-05-02T00:48:44;1.70;;;1.60;;
20166;SDS011;10243;49.118;8.508;2023-05-02T00:49:04;1.83;;;1.60;;
20166;SDS011;10243;49.118;8.508;2023-05-02T00:49:25;1.80;;;1.70;;
20166;SDS011;10243;49.118;8.508;2023-05-02T00:49:46;2.00;;;1.90;;
20166;SDS011;10243;49.118;8.508;2023-05-02T00:50:09;1.80;;;1.70;;
20166;SDS011;10243;49.118;8.508;2023-05-02T00:50:29;1.60;;;1.50;;
20166;SDS011;10243;49.118;8.508;2023-05-02T00:50:52;1.80;;;1.70;;
20166;SDS011;10243;49.118;8.508;2023-05-02T00:51:13;1.70;;;1.60;;
20166;SDS011;10243;49.118;8.508;2023-05-02T00:51:33;1.67;;;1.57;;
20166;SDS011;10243;49.118;8.508;2023-05-02T00:51:54;1.85;;;1.75;;
20166;SDS011;10243;49.118;8.508;2023-05-02T00:52:14;2.13;;;1.93;;
20166;SDS011;10243;49.118;8.508;2023-05-02T00:52:37;2.20;;;2.00;;
20166;SDS011;10243;49.118;8.508;2023-05-02T00:52:58;2.20;;;1.80;;
20166;SDS011;10243;49.118;8.508;2023-05-02T00:53:19;1.88;;;1.70;;
20166;SDS011;10243;49.118;8.508;2023-05-02T00:53:40;1.97;;;1.87;;
20166;SDS011;10243;49.118;8.508;2023-05-02T00:54:01;1.95;;;1.83;;
20166;SDS011;10243;49.118;8.508;2023-05-02T00:54:22;1.80;;;1.70;;
20166;SDS011;10243;49.118;8.508;2023-05-02T00:54:42;1.77;;;1.67;;
20166;SDS011;10243;49.118;8.508;2023-05-02T00:55:03;1.77;;;1.67;;
20166;SDS011;10243;49.118;8.508;2023-05-02T00:55:28;1.65;;;1.55;;
20166;SDS011;10243;49.118;8.508;2023-05-02T00:55:49;1.65;;;1.55;;
20166;SDS011;10243;49.118;8.508;2023-05-02T00:56:09;2.20;;;1.98;;
20166;SDS011;10243;49.118;8.508;2023-05-02T00:56:30;1.63;;;1.53;;
20166;SDS011;10243;49.118;8.508;2023-05-02T00:56:51;1.73;;;1.33;;
20166;SDS011;10243;49.118;8.508;2023-05-02T00:57:12;2.47;;;1.67;;
20166;SDS011;10243;49.118;8.508;2023-05-02T00:57:32;1.80;;;1.67;;
20166;SDS011;10243;49.118;8.508;2023-05-02T00:57:53;1.70;;;1.60;;
20166;SDS011;10243;49.118;8.508;2023-05-02T00:58:15;1.50;;;1.40;;
20166;SDS011;10243;49.118;8.508;2023-05-02T00:58:36;1.60;;;1.50;;
20166;SDS011;10243;49.118;8.508;2023-05-02T00:58:57;1.60;;;1.50;;
20166;SDS011;10243;49.118;8.508;2023-05-02T00:59:18;1.73;;;1.63;;
20166;SDS011;10243;49.118;8.508;2023-05-02T00:59:40;2.10;;;1.90;;
20166;SDS011;10243;49.118;8.508;2023-05-02T01:00:00;1.90;;;1.80;;
20166;SDS011;10243;49.118;8.508;2023-05-02T01:00:21;1.50;;;1.40;;
20166;SDS011;10243;49.118;8.508;2023-05-02T01:00:48;1.65;;;1.55;;
20166;SDS011;10243;49.118;8.508;2023-05-02T01:01:20;2.20;;;2.00;;
20166;SDS011;10243;49.118;8.508;2023-05-02T01:01:49;2.10;;;2.00;;
20166;SDS011;10243;49.118;8.508;2023-05-02T01:02:19;1.95;;;1.80;;
20166;SDS011;10243;49.118;8.508;2023-05-02T01:02:46;1.75;;;1.65;;
20166;SDS011;10243;49.118;8.508;2023-05-02T01:03:09;1.63;;;1.48;;
20166;SDS011;10243;49.118;8.508;2023-05-02T01:03:35;1.50;;;1.40;;
20166;SDS011;10243;49.118;8.508;2023-05-02T01:04:00;1.70;;;1.60;;
20166;SDS011;10243;49.118;8.508;2023-05-02T01:04:28;2.13;;;1.80;;
20166;SDS011;10243;49.118;8.508;2023-05-02T01:04:51;1.92;;;1.73;;
20166;SDS011;10243;49.118;8.508;2023-05-02T01:05:13;1.70;;;1.60;;
20166;SDS011;10243;49.118;8.508;2023-05-02T01:05:37;1.80;;;1.70;;
20166;SDS011;10243;49.118;8.508;2023-05-02T01:06:04;1.80;;;1.70;;
20166;SDS011;10243;49.118;8.508;2023-05-02T01:06:30;1.67;;;1.58;;
20166;SDS011;10243;49.118;8.508;2023-05-02T01:06:58;2.90;;;1.60;;
20166;SDS011;10243;49.118;8.508;2023-05-02T01:07:27;2.60;;;1.73;;
20166;SDS011;10243;49.118;8.508;2023-05-02T01:08:06;1.70;;;1.60;;
20166;SDS011;10243;49.118;8.508;2023-05-02T01:08:30;1.80;;;1.70;;
20166;SDS011;10243;49.118;8.508;2023-05-02T01:08:55;1.65;;;1.55;;
20166;SDS011;10243;49.118;8.508;2023-05-02T01:09:21;1.60;;;1.50;;
20166;SDS011;10243;49.118;8.508;2023-05-02T01:09:46;1.70;;;1.60;;
20166;SDS011;10243;49.118;8.508;2023-05-02T01:10:13;1.60;;;1.50;;
20166;SDS011;10243;49.118;8.508;2023-05-02T01:10:40;1.58;;;1.48;;
20166;SDS011;10243;49.118;8.508;2023-05-02T01:11:04;1.70;;;1.60;;
20166;SDS011;10243;49.118;8.508;2023-05-02T01:11:27;1.42;;;1.33;;
20166;SDS011;10243;49.118;8.508;2023-05-02T01:11:52;1.63;;;1.45;;
20166;SDS011;10243;49.118;8.508;2023-05-02T01:12:17;1.65;;;1.55;;
20166;SDS011;10243;49.118;8.508;2023-05-02T01:12:41;1.70;;;1.60;;
20166;SDS011;10243;49.118;8.508;2023-05-02T01:13:02;1.73;;;1.63;;
20166;SDS011;10243;49.118;8.508;2023-05-02T01:13:24;1.50;;;1.40;;
20166;SDS011;10243;49.118;8.508;2023-05-02T01:13:46;1.42;;;1.33;;
20166;SDS011;10243;49.118;8.508;2023-05-02T01:14:07;1.83;;;1.73;;
20166;SDS011;10243;49.118;8.508;2023-05-02T01:14:30;1.60;;;1.50;;
20166;SDS011;10243;49.118;8.508;2023-05-02T01:14:52;1.67;;;1.58;;
20166;SDS011;10243;49.118;8.508;2023-05-02T01:15:15;1.50;;;1.40;;
20166;SDS011;10243;49.118;8.508;2023-05-02T01:15:36;1.42;;;1.30;;
20166;SDS011;10243;49.118;8.508;2023-05-02T01:15:57;1.45;;;1.35;;
20166;SDS011;10243;49.118;8.508;2023-05-02T01:16:19;1.70;;;1.60;;
20166;SDS011;10243;49.118;8.508;2023-05-02T01:16:40;1.60;;;1.50;;
20166;SDS011;10243;49.118;8.508;2023-05-02T01:17:04;1.83;;;1.50;;
20166;SDS011;10243;49.118;8.508;2023-05-02T01:17:27;1.70;;;1.60;;
20166;SDS011;10243;49.118;8.508;2023-05-02T01:17:49;1.60;;;1.50;;
20166;SDS011;10243;49.118;8.508;2023-05-02T01:18:12;1.40;;;1.30;;
20166;SDS011;10243;49.118;8.508;2023-05-02T01:18:35;1.60;;;1.50;;
20166;SDS011;10243;49.118;8.508;2023-05-02T01:18:58;1.48;;;1.38;;
20166;SDS011;10243;49.118;8.508;2023-05-02T01:19:21;1.50;;;1.40;;
20166;SDS011;10243;49.118;8.508;2023-05-02T01:19:46;1.60;;;1.50;;
20166;SDS011;10243;49.118;8.508;2023-05-02T01:20:12;1.55;;;1.45;;
20166;SDS011;10243;49.118;8.508;2023-05-02T01:20:35;1.60;;;1.50;;
20166;SDS011;10243;49.118;8.508;2023-05-02T01:20:58;1.45;;;1.35;;
20166;SDS011;10243;49.118;8.508;2023-05-02T01:21:19;1.63;;;1.52;;
20166;SDS011;10243;49.118;8.508;2023-05-02T01:21:41;1.70;;;1.60;;
20166;SDS011;10243;49.118;8.508;2023-05-02T01:22:02;1.98;;;1.80;;
20166;SDS011;10243;49.118;8.508;2023-05-02T01:22:24;1.67;;;1.40;;
20166;SDS011;10243;49.118;8.508;2023-05-02T01:22:45;1.60;;;1.50;;
20166;SDS011;10243;49.118;8.508;2023-05-02T01:23:10;1.50;;;1.40;;
20166;SDS011;10243;49.118;8.508;2023-05-02T01:23:37;1.70;;;1.60;;
20166;SDS011;10243;49.118;8.508;2023-05-02T01:23:59;1.67;;;1.58;;
20166;SDS011;10243;49.118;8.508;2023-05-02T01:24:24;1.75;;;1.65;;
20166;SDS011;10243;49.118;8.508;2023-05-02T01:24:48;1.60;;;1.50;;
20166;SDS011;10243;49.118;8.508;2023-05-02T01:25:16;1.70;;;1.60;;
20166;SDS011;10243;49.118;8.508;2023-05-02T01:25:39;1.83;;;1.60;;
20166;SDS011;10243;49.118;8.508;2023-05-02T01:26:14;1.50;;;1.40;;
20166;SDS011;10243;49.118;8.508;2023-05-02T01:26:44;1.63;;;1.52;;
20166;SDS011;10243;49.118;8.508;2023-05-02T01:27:10;1.67;;;1.58;;
20166;SDS011;10243;49.118;8.508;2023-05-02T01:27:36;1.60;;;1.50;;
20166;SDS011;10243;49.118;8.508;2023-05-02T01:28:01;1.50;;;1.40;;
20166;SDS011;10243;49.118;8.508;2023-05-02T01:28:28;1.60;;;1.50;;
20166;SDS011;10243;49.118;8.508;2023-05-02T01:28:56;1.90;;;1.80;;
20166;SDS011;10243;49.118;8.508;2023-05-02T01:29:17;2.33;;;1.70;;
20166;SDS011;10243;49.118;8.508;2023-05-02T01:29:40;2.33;;;1.50;;
20166;SDS011;10243;49.118;8.508;2023-05-02T01:30:01;1.83;;;1.50;;
20166;SDS011;10243;49.118;8.508;2023-05-02T01:30:21;1.70;;;1.60;;
20166;SDS011;10243;49.118;8.508;2023-05-02T01:30:43;1.67;;;1.55;;
20166;SDS011;10243;49.118;8.508;2023-05-02T01:31:05;1.75;;;1.65;;
20166;SDS011;10243;49.118;8.508;2023-05-02T01:31:28;2.05;;;1.88;;
20166;SDS011;10243;49.118;8.508;2023-05-02T01:31:50;2.80;;;2.20;;
20166;SDS011;10243;49.118;8.508;2023-05-02T01:32:11;2.15;;;2.03;;
20166;SDS011;10243;49.118;8.508;2023-05-02T01:32:32;2.80;;;2.05;;
20166;SDS011;10243;49.118;8.508;2023-05-02T01:32:56;2.30;;;1.98;;
20166;SDS011;10243;49.118;8.508;2023-05-02T01:33:18;1.80;;;1.70;;
20166;SDS011;10243;49.118;8.508;2023-05-02T01:33:39;1.83;;;1.73;;
20166;SDS011;10243;49.118;8.508;2023-05-02T01:34:01;2.00;;;1.90;;
20166;SDS011;10243;49.118;8.508;2023-05-02T01:34:23;2.00;;;1.90;;
20166;SDS011;10243;49.118;8.508;2023-05-02T01:34:45;1.95;;;1.85;;
20166;SDS011;10243;49.118;8.508;2023-05-02T01:35:07;2.10;;;1.90;;
20166;SDS011;10243;49.118;8.508;2023-05-02T01:35:28;2.00;;;1.80;;
20166;SDS011;10243;49.118;8.508;2023-05-02T01:35:50;1.95;;;1.80;;
20166;SDS011;10243;49.118;8.508;2023-05-02T01:36:13;2.10;;;1.90;;
20166;SDS011;10243;49.118;8.508;2023-05-02T01:36:35;1.85;;;1.75;;
20166;SDS011;10243;49.118;8.508;2023-05-02T01:36:57;1.83;;;1.73;;
20166;SDS011;10243;49.118;8.508;2023-05-02T01:37:19;2.38;;;2.17;;
20166;SDS011;10243;49.118;8.508;2023-05-02T01:37:41;2.10;;;1.90;;
20166;SDS011;10243;49.118;8.508;2023-05-02T01:38:02;1.90;;;1.80;;
20166;SDS011;10243;49.118;8.508;2023-05-02T01:38:24;2.30;;;2.10;;
20166;SDS011;10243;49.118;8.508;2023-05-02T01:38:46;2.20;;;2.00;;
20166;SDS011;10243;49.118;8.508;2023-05-02T01:39:07;2.15;;;2.00;;
20166;SDS011;10243;49.118;8.508;2023-05-02T01:39:28;2.10;;;2.00;;
20166;SDS011;10243;49.118;8.508;2023-05-02T01:39:49;2.25;;;2.05;;
20166;SDS011;10243;49.118;8.508;2023-05-02T01:40:10;2.00;;;1.87;;
20166;SDS011;10243;49.118;8.508;2023-05-02T01:40:34;2.33;;;2.13;;
20166;SDS011;10243;49.118;8.508;2023-05-02T01:40:56;2.20;;;2.00;;
20166;SDS011;10243;49.118;8.508;2023-05-02T01:41:22;2.15;;;2.03;;
20166;SDS011;10243;49.118;8.508;2023-05-02T01:41:45;1.88;;;1.77;;
20166;SDS011;10243;49.118;8.508;2023-05-02T01:42:07;1.88;;;1.77;;
20166;SDS011;10243;49.118;8.508;2023-05-02T01:42:28;1.90;;;1.80;;
20166;SDS011;10243;49.118;8.508;2023-05-02T01:42:49;1.95;;;1.85;;
20166;SDS011;10243;49.118;8.508;2023-05-02T01:43:11;2.13;;;2.00;;
20166;SDS011;10243;49.118;8.508;2023-05-02T01:43:33;2.20;;;2.00;;
20166;SDS011;10243;49.118;8.508;2023-05-02T01:43:55;2.10;;;1.90;;
20166;SDS011;10243;49.118;8.508;2023-05-02T01:44:17;2.45;;;1.92;;
20166;SDS011;10243;49.118;8.508;2023-05-02T01:44:37;2.20;;;1.90;;
20166;SDS011;10243;49.118;8.508;2023-05-02T01:45:00;2.20;;;1.80;;
20166;SDS011;10243;49.118;8.508;2023-05-02T01:45:22;1.90;;;1.80;;
20166;SDS011;10243;49.118;8.508;2023-05-02T01:45:43;2.10;;;1.90;;
20166;SDS011;10243;49.118;8.508;2023-05-02T01:46:06;1.90;;;1.75;;
20166;SDS011;10243;49.118;8.508;2023-05-02T01:46:29;1.85;;;1.70;;
20166;SDS011;10243;49.118;8.508;2023-05-02T01:46:50;2.15;;;1.83;;
20166;SDS011;10243;49.118;8.508;2023-05-02T01:47:12;2.10;;;1.90;;
20166;SDS011;10243;49.118;8.508;2023-05-02T01:47:34;2.05;;;1.95;;
20166;SDS011;10243;49.118;8.508;2023-05-02T01:47:56;1.80;;;1.70;;
20166;SDS011;10243;49.118;8.508;2023-05-02T01:48:17;1.95;;;1.85;;
20166;SDS011;10243;49.118;8.508;2023-05-02T01:48:38;1.80;;;1.70;;
20166;SDS011;10243;49.118;8.508;2023-05-02T01:49:00;1.70;;;1.60;;
20166;SDS011;10243;49.118;8.508;2023-05-02T01:49:22;2.47;;;1.80;;
20166;SDS011;10243;49.118;8.508;2023-05-02T01:49:43;2.10;;;1.90;;
20166;SDS011;10243;49.118;8.508;2023-05-02T01:50:04;1.88;;;1.77;;
20166;SDS011;10243;49.118;8.508;2023-05-02T01:50:26;1.90;;;1.80;;
20166;SDS011;10243;49.118;8.508;2023-05-02T01:50:48;3.05;;;1.90;;
20166;SDS011;10243;49.118;8.508;2023-05-02T01:51:09;2.20;;;1.85;;
20166;SDS011;10243;49.118;8.508;2023-05-02T01:51:32;2.22;;;2.03;;
20166;SDS011;10243;49.118;8.508;2023-05-02T01:51:53;1.85;;;1.75;;
20166;SDS011;10243;49.118;8.508;2023-05-02T01:52:15;1.80;;;1.70;;
20166;SDS011;10243;49.118;8.508;2023-05-02T01:52:40;1.92;;;1.70;;
20166;SDS011;10243;49.118;8.508;2023-05-02T01:53:01;2.42;;;1.80;;
20166;SDS011;10243;49.118;8.508;2023-05-02T01:53:23;1.70;;;1.60;;
20166;SDS011;10243;49.118;8.508;2023-05-02T01:53:45;1.77;;;1.67;;
20166;SDS011;10243;49.118;8.508;2023-05-02T01:54:07;2.17;;;2.00;;
20166;SDS011;10243;49.118;8.508;2023-05-02T01:54:28;2.03;;;1.92;;
20166;SDS011;10243;49.118;8.508;2023-05-02T01:54:50;2.40;;;2.20;;
20166;SDS011;10243;49.118;8.508;2023-05-02T01:55:12;2.10;;;1.90;;
20166;SDS011;10243;49.118;8.508;2023-05-02T01:55:34;2.17;;;1.98;;
20166;SDS011;10243;49.118;8.508;2023-05-02T01:55:55;2.00;;;1.90;;
20166;SDS011;10243;49.118;8.508;2023-05-02T01:56:17;2.28;;;2.08;;
20166;SDS011;10243;49.118;8.508;2023-05-02T01:56:38;2.30;;;2.10;;
20166;SDS011;10243;49.118;8.508;2023-05-02T01:57:00;2.10;;;1.90;;
20166;SDS011;10243;49.118;8.508;2023-05-02T01:57:22;2.17;;;2.00;;
20166;SDS011;10243;49.118;8.508;2023-05-02T01:57:43;2.00;;;1.65;;
20166;SDS011;10243;49.118;8.508;2023-05-02T01:58:05;2.15;;;1.73;;
20166;SDS011;10243;49.118;8.508;2023-05-02T01:58:27;2.50;;;1.92;;
20166;SDS011;10243;49.118;8.508;2023-05-02T01:58:48;2.17;;;1.98;;
20166;SDS011;10243;49.118;8.508;2023-05-02T01:59:11;1.90;;;1.80;;
20166;SDS011;10243;49.118;8.508;2023-05-02T01:59:33;2.00;;;1.90;;
20166;SDS011;10243;49.118;8.508;2023-05-02T01:59:55;1.90;;;1.80;;
20166;SDS011;10243;49.118;8.508;2023-05-02T02:00:16;2.08;;;1.90;;
20166;SDS011;10243;49.118;8.508;2023-05-02T02:00:38;2.40;;;2.20;;
20166;SDS011;10243;49.118;8.508;2023-05-02T02:00:59;2.20;;;2.00;;
20166;SDS011;10243;49.118;8.508;2023-05-02T02:01:21;2.30;;;2.10;;
20166;SDS011;10243;49.118;8.508;2023-05-02T02:01:44;2.50;;;2.30;;
20166;SDS011;10243;49.118;8.508;2023-05-02T02:02:05;2.20;;;2.00;;
20166;SDS011;10243;49.118;8.508;2023-05-02T02:02:26;2.20;;;2.00;;
20166;SDS011;10243;49.118;8.508;2023-05-02T02:02:48;2.00;;;1.80;;
20166;SDS011;10243;49.118;8.508;2023-05-02T02:03:11;2.20;;;2.00;;
20166;SDS011;10243;49.118;8.508;2023-05-02T02:03:32;2.08;;;1.95;;
20166;SDS011;10243;49.118;8.508;2023-05-02T02:03:53;1.90;;;1.80;;
20166;SDS011;10243;49.118;8.508;2023-05-02T02:04:14;2.60;;;2.03;;
20166;SDS011;10243;49.118;8.508;2023-05-02T02:04:36;2.30;;;2.00;;
20166;SDS011;10243;49.118;8.508;2023-05-02T02:04:57;2.15;;;1.95;;
20166;SDS011;10243;49.118;8.508;2023-05-02T02:05:18;2.00;;;1.70;;
20166;SDS011;10243;49.118;8.508;2023-05-02T02:05:39;2.10;;;1.67;;
20166;SDS011;10243;49.118;8.508;2023-05-02T02:06:01;3.03;;;1.83;;
20166;SDS011;10243;49.118;8.508;2023-05-02T02:06:22;1.90;;;1.80;;
20166;SDS011;10243;49.118;8.508;2023-05-02T02:06:44;1.83;;;1.73;;
20166;SDS011;10243;49.118;8.508;2023-05-02T02:07:06;1.80;;;1.70;;
20166;SDS011;10243;49.118;8.508;2023-05-02T02:07:28;2.00;;;1.90;;
20166;SDS011;10243;49.118;8.508;2023-05-02T02:07:50;1.90;;;1.80;;
20166;SDS011;10243;49.118;8.508;2023-05-02T02:08:11;1.92;;;1.83;;
20166;SDS011;10243;49.118;8.508;2023-05-02T02:08:31;1.85;;;1.75;;
20166;SDS011;10243;49.118;8.508;2023-05-02T02:08:52;2.07;;;1.90;;
20166;SDS011;10243;49.118;8.508;2023-05-02T02:09:13;1.90;;;1.80;;
20166;SDS011;10243;49.118;8.508;2023-05-02T02:09:34;2.20;;;2.00;;
20166;SDS011;10243;49.118;8.508;2023-05-02T02:09:57;1.85;;;1.75;;
20166;SDS011;10243;49.118;8.508;2023-05-02T02:10:17;1.90;;;1.80;;
20166;SDS011;10243;49.118;8.508;2023-05-02T02:10:40;2.00;;;1.90;;
20166;SDS011;10243;49.118;8.508;2023-05-02T02:11:03;2.10;;;2.00;;
20166;SDS011;10243;49.118;8.508;2023-05-02T02:11:33;2.22;;;2.03;;
20166;SDS011;10243;49.118;8.508;2023-05-02T02:11:56;3.95;;;2.28;;
20166;SDS011;10243;49.118;8.508;2023-05-02T02:12:21;2.40;;;2.20;;
20166;SDS011;10243;49.118;8.508;2023-05-02T02:12:44;2.40;;;2.10;;